PWSweather.com
Personal Weather Stations
Station Observations
WISCHPK61
Green Bay Schmitt Park, Green Bay, WI 54311

Green Bay Schmitt ParkGreen Bay, WI 54311

Lat: 44.514277, Lon: -87.935067

Elevation: 735

Station Type: Acu Rite Pro Weather Center model 02032C

http://greenbayweathercam.com

High Low Average
Temperature 45.9°F7.7°C 33.3°F0.7°C 38.4°F3.6°C
Dew Point 45.2°F7.3°C 31.3°F-0.4°C 36.7°F2.6°C
Winds 1.2 mph 1.9 kmh Calm Calm Calm SCalm S
Wind Gusts 6.9 mph11.1 kmh -- 1.0 mph1.6 kmh
Humidity 99% 70% 94%
Pressure 29.38 in994.9 mb 29.13 in986.5 mb -
Precipitation 0.06 in1.5 mm - -
Hour Temp Dew Point Humidity Winds Wind Gusts Pressure Precip Precip Rate Daily Precip Total
12:00 AM 37.9°F3.3°C 37.6°F3.1°C 99% Calm Calm -- 29.40 in995.6 mb - 0.00 in0.0 mm 0.00 in0.0 mm
01:00 AM 37.0°F2.8°C 36.7°F2.6°C 99% Calm Calm -- 29.38 in994.9 mb - 0.00 in0.0 mm 0.00 in0.0 mm
02:00 AM 36.5°F2.5°C 32.4°F0.2°C 85% Calm Calm -- 29.36 in994.2 mb - 0.00 in0.0 mm 0.00 in0.0 mm
03:00 AM 36.1°F2.3°C 35.8°F2.1°C 99% Calm Calm -- 29.34 in993.6 mb - 0.00 in0.0 mm 0.00 in0.0 mm
04:00 AM 36.3°F2.4°C 36.0°F2.2°C 99% Calm Calm -- 29.31 in992.6 mb - 0.00 in0.0 mm 0.00 in0.0 mm
05:00 AM 36.3°F2.4°C 31.3°F-0.4°C 82% Calm Calm -- 29.28 in991.5 mb - 0.00 in0.0 mm 0.00 in0.0 mm
06:00 AM 36.5°F2.5°C 31.5°F-0.3°C 82% Calm Calm -- 29.26 in990.9 mb - 0.00 in0.0 mm 0.00 in0.0 mm
07:00 AM 36.7°F2.6°C 36.4°F2.4°C 99% Calm Calm 1.2 mph1.9 kmh 29.25 in990.5 mb - 0.00 in0.0 mm 0.00 in0.0 mm
08:00 AM 37.2°F2.9°C 36.9°F2.7°C 99% Calm Calm -- 29.24 in990.2 mb - 0.00 in0.0 mm 0.00 in0.0 mm
09:00 AM 38.8°F3.8°C 38.5°F3.6°C 99% Calm Calm -- 29.24 in990.2 mb - 0.00 in0.0 mm 0.00 in0.0 mm
10:00 AM 40.8°F4.9°C 31.8°F-0.1°C 70% 1.2 mph NNW1.9 kmh NNW 6.9 mph11.1 kmh 29.22 in989.5 mb - 0.00 in0.0 mm 0.00 in0.0 mm
11:00 AM 41.0°F5.0°C 40.7°F4.8°C 99% 1.2 mph S1.9 kmh S 3.5 mph5.6 kmh 29.21 in989.2 mb - 0.00 in0.0 mm 0.00 in0.0 mm
12:00 PM 41.9°F5.5°C 41.6°F5.3°C 99% Calm Calm -- 29.20 in988.8 mb - 0.00 in0.0 mm 0.00 in0.0 mm
01:00 PM 43.7°F6.5°C 36.6°F2.6°C 76% 1.2 mph ESE1.9 kmh ESE 2.3 mph3.7 kmh 29.18 in988.1 mb - 0.00 in0.0 mm 0.00 in0.0 mm
02:00 PM 43.3°F6.3°C 43.0°F6.1°C 99% Calm Calm -- 29.17 in987.8 mb - 0.00 in0.0 mm 0.00 in0.0 mm
03:00 PM 45.5°F7.5°C 45.2°F7.3°C 99% Calm Calm -- 29.14 in986.8 mb - 0.00 in0.0 mm 0.00 in0.0 mm
04:00 PM 45.9°F7.7°C 39.1°F3.9°C 77% Calm Calm 4.6 mph7.4 kmh 29.13 in986.5 mb - 0.00 in0.0 mm 0.00 in0.0 mm
05:00 PM 44.1°F6.7°C 43.8°F6.6°C 99% Calm Calm -- 29.13 in986.5 mb - 0.00 in0.0 mm 0.00 in0.0 mm
06:00 PM 38.8°F3.8°C 38.5°F3.6°C 99% Calm Calm -- 29.16 in987.5 mb - 0.06 in1.5 mm 0.06 in1.5 mm
07:00 PM 36.4°F2.4°C 36.1°F2.3°C 99% Calm Calm -- 29.17 in987.8 mb - 0.00 in0.0 mm 0.06 in1.5 mm
08:00 PM 35.1°F1.7°C 34.8°F1.6°C 99% Calm Calm -- 29.18 in988.1 mb - 0.00 in0.0 mm 0.06 in1.5 mm
09:00 PM 34.0°F1.1°C 33.7°F0.9°C 99% Calm Calm -- 29.20 in988.8 mb - 0.00 in0.0 mm 0.06 in1.5 mm
10:00 PM 33.3°F0.7°C 33.0°F0.6°C 99% Calm Calm -- 29.21 in989.2 mb - 0.00 in0.0 mm 0.06 in1.5 mm
11:00 PM 33.4°F0.8°C 33.1°F0.6°C 99% Calm Calm -- 29.22 in989.5 mb - 0.00 in0.0 mm 0.06 in1.5 mm